createdAt,value
2019-04-05T00:07:17.873Z,16.17
2019-04-05T00:17:20.312Z,16.90
2019-04-05T00:27:22.573Z,16.57
2019-04-05T00:37:23.403Z,16.03
2019-04-05T00:47:24.110Z,15.53
2019-04-05T00:57:25.068Z,15.00
2019-04-05T01:07:25.798Z,13.90
2019-04-05T01:17:27.170Z,15.63
2019-04-05T01:27:28.884Z,17.30
2019-04-05T01:37:29.657Z,16.37
2019-04-05T01:47:30.648Z,17.70
2019-04-05T01:57:31.656Z,18.23
2019-04-05T02:07:32.345Z,17.80
2019-04-05T02:17:35.772Z,18.13
2019-04-05T02:27:36.214Z,19.00
2019-04-05T02:37:37.286Z,18.30
2019-04-05T02:47:39.918Z,18.13
2019-04-05T02:57:43.079Z,16.97
2019-04-05T03:07:44.433Z,16.87
2019-04-05T03:17:45.472Z,17.97
2019-04-05T03:27:46.910Z,17.33
2019-04-05T03:37:47.735Z,15.97
2019-04-05T03:47:48.830Z,20.30
2019-04-05T03:57:49.667Z,20.27
2019-04-05T04:07:50.476Z,20.57
2019-04-05T04:17:51.381Z,21.93
2019-04-05T04:27:52.261Z,20.17
2019-04-05T04:37:53.547Z,18.43
2019-04-05T04:47:56.177Z,15.50
2019-04-05T04:57:57.036Z,16.80
2019-04-05T05:07:57.841Z,17.93
2019-04-05T05:17:59.232Z,16.73
2019-04-05T05:28:00.228Z,16.50
2019-04-05T05:38:01.662Z,16.67
2019-04-05T05:48:03.047Z,19.23
2019-04-05T05:58:03.752Z,18.13
2019-04-05T06:08:04.744Z,17.83
2019-04-05T06:18:05.793Z,14.33
2019-04-05T06:28:06.527Z,15.07
2019-04-05T06:38:07.213Z,15.03
2019-04-05T06:48:19.055Z,17.40
2019-04-05T06:58:19.892Z,16.80
2019-04-05T07:08:18.087Z,15.10
2019-04-05T07:18:26.404Z,14.70
2019-04-05T07:28:20.559Z,14.10
2019-04-05T07:38:21.630Z,14.27
2019-04-05T07:48:23.302Z,14.33
2019-04-05T07:58:24.062Z,14.43
2019-04-05T08:08:34.933Z,13.40
2019-04-05T08:18:35.622Z,14.87
2019-04-05T08:28:36.423Z,17.43
2019-04-05T08:38:39.793Z,20.87
2019-04-05T08:48:40.984Z,15.70
2019-04-05T08:58:41.950Z,15.53
2019-04-05T09:08:42.948Z,12.10
2019-04-05T09:18:43.626Z,12.40
2019-04-05T09:28:45.667Z,14.80
2019-04-05T09:38:46.803Z,16.27
2019-04-05T09:48:47.816Z,13.33
2019-04-05T09:58:48.840Z,13.33
2019-04-05T10:08:50.067Z,15.10
2019-04-05T10:18:51.645Z,12.97
2019-04-05T10:28:53.670Z,12.20
2019-04-05T10:38:54.529Z,10.80
2019-04-05T10:48:55.294Z,12.00
2019-04-05T10:58:57.091Z,11.20
2019-04-05T11:08:58.111Z,10.67
2019-04-05T11:19:01.902Z,12.57
2019-04-05T11:29:01.651Z,11.73
2019-04-05T11:39:06.126Z,12.47
2019-04-05T11:49:07.166Z,11.93
2019-04-05T11:59:07.916Z,12.33
2019-04-05T12:09:09.461Z,10.70
2019-04-05T12:19:10.699Z,13.23
2019-04-05T12:29:11.460Z,11.03
2019-04-05T12:39:12.471Z,16.87
2019-04-05T12:49:15.315Z,12.43
2019-04-05T12:59:16.587Z,13.07
2019-04-05T13:09:17.208Z,14.43
2019-04-05T13:19:18.238Z,13.50
2019-04-05T13:29:19.771Z,12.13
2019-04-05T13:39:21.076Z,12.70
2019-04-05T13:49:22.272Z,13.40
2019-04-05T13:59:23.218Z,12.50
2019-04-05T14:09:24.285Z,15.30
2019-04-05T14:19:25.056Z,11.87
2019-04-05T14:29:25.863Z,12.37
2019-04-05T14:39:26.741Z,13.27
2019-04-05T14:49:31.796Z,13.70
2019-04-05T14:59:32.858Z,14.23
2019-04-05T15:09:35.243Z,14.87
2019-04-05T15:19:37.398Z,17.23
2019-04-05T15:29:38.022Z,16.23
2019-04-05T15:39:44.282Z,25.53
2019-04-05T15:49:44.193Z,19.40
2019-04-05T15:59:45.322Z,17.43
2019-04-05T16:09:46.078Z,19.20
2019-04-05T16:19:46.860Z,19.47
2019-04-05T16:29:47.582Z,19.77
2019-04-05T16:39:48.604Z,20.47
2019-04-05T16:49:53.817Z,21.27
2019-04-05T16:59:54.530Z,23.90
2019-04-05T17:09:55.209Z,27.17
2019-04-05T17:19:55.920Z,26.20
2019-04-05T17:29:56.577Z,25.97
2019-04-05T17:39:57.683Z,27.33
2019-04-05T17:49:58.375Z,26.37
2019-04-05T18:00:01.085Z,27.00
2019-04-05T18:10:03.448Z,28.27
2019-04-05T18:20:04.814Z,32.07
2019-04-05T18:30:08.093Z,29.53
2019-04-05T18:40:15.199Z,33.13
2019-04-05T18:50:17.916Z,31.83
2019-04-05T19:00:18.943Z,31.80
2019-04-05T19:10:19.946Z,37.00
2019-04-05T19:20:20.784Z,37.67
2019-04-05T19:50:34.935Z,31.70
2019-04-05T20:00:50.654Z,31.77
2019-04-05T20:10:50.528Z,32.23
2019-04-05T20:21:11.148Z,31.80
2019-04-05T20:31:20.082Z,30.77
2019-04-05T20:51:59.689Z,28.93
2019-04-05T21:02:04.615Z,29.73
2019-04-05T21:12:05.614Z,26.43
2019-04-05T21:22:06.403Z,24.90
2019-04-05T21:32:11.881Z,24.07
2019-04-05T21:42:12.553Z,24.60
2019-04-05T21:52:13.276Z,22.37
2019-04-05T22:02:13.962Z,25.40
2019-04-05T22:12:14.930Z,23.77
2019-04-05T22:22:15.597Z,25.73
2019-04-05T22:32:16.284Z,26.23
2019-04-05T22:42:18.032Z,25.13
2019-04-05T22:52:19.092Z,26.17
2019-04-05T23:02:19.783Z,30.30
2019-04-05T23:12:20.478Z,30.17
2019-04-05T23:22:21.207Z,29.77
2019-04-05T23:32:21.910Z,28.37
2019-04-05T23:42:22.918Z,27.33
2019-04-05T23:52:23.593Z,26.57
